Time;durP1;ratioP1;P1;durP2;ratioP2;P2;SDS_P1;SDS_P2;PMS_P1;PMS_P2;Temp;Humidity;BMP_temperature;BMP_pressure;BME280_temperature;BME280_humidity;BME280_pressure;Samples;Min_cycle;Max_cycle;Signal;HPM_P1;HPM_P2
2022/08/07 00:00:33;;;;;;;1.30;1.20;;;;;;;;;;5044242;28;20229;-34
2022/08/07 00:03:02;;;;;;;3.10;1.60;;;;;;;;;;5050592;28;20201;-36
2022/08/07 00:05:29;;;;;;;1.42;1.23;;;;;;;;;;5049544;28;20446;-32
2022/08/07 00:07:56;;;;;;;1.30;1.20;;;;;;;;;;5036825;28;20222;-32
2022/08/07 00:10:23;;;;;;;1.57;1.00;;;;;;;;;;5051905;28;20198;-37
2022/08/07 00:12:50;;;;;;;0.90;0.90;;;;;;;;;;5052166;28;20213;-34
2022/08/07 00:15:17;;;;;;;1.40;1.30;;;;;;;;;;5052178;28;20210;-37
2022/08/07 00:17:45;;;;;;;1.37;1.27;;;;;;;;;;5040900;28;20316;-34
2022/08/07 00:20:13;;;;;;;0.82;0.82;;;;;;;;;;5051027;28;20208;-33
2022/08/07 00:22:40;;;;;;;1.52;1.23;;;;;;;;;;5036083;28;20206;-32
2022/08/07 00:25:08;;;;;;;1.23;1.10;;;;;;;;;;5050355;28;20571;-39
2022/08/07 00:27:35;;;;;;;1.20;1.10;;;;;;;;;;5052026;28;20236;-36
2022/08/07 00:30:03;;;;;;;0.97;0.97;;;;;;;;;;5046624;28;20202;-37
2022/08/07 00:32:30;;;;;;;1.10;1.03;;;;;;;;;;5054680;28;20264;-36
2022/08/07 00:34:57;;;;;;;1.37;1.27;;;;;;;;;;5053501;28;20206;-36
2022/08/07 00:37:26;;;;;;;1.00;1.00;;;;;;;;;;5039748;28;20217;-34
2022/08/07 00:39:53;;;;;;;2.00;1.20;;;;;;;;;;5047998;28;20233;-36
2022/08/07 00:42:21;;;;;;;1.10;1.10;;;;;;;;;;5051547;28;20205;-33
2022/08/07 00:44:48;;;;;;;2.80;1.50;;;;;;;;;;5051545;28;20216;-39
2022/08/07 00:47:15;;;;;;;2.10;1.30;;;;;;;;;;5045402;28;20290;-34
2022/08/07 00:49:43;;;;;;;1.20;1.10;;;;;;;;;;5047168;28;20208;-37
2022/08/07 00:52:10;;;;;;;1.10;1.10;;;;;;;;;;5039891;28;20269;-37
2022/08/07 00:54:39;;;;;;;4.63;1.47;;;;;;;;;;5047548;28;20213;-34
2022/08/07 00:57:07;;;;;;;1.87;1.20;;;;;;;;;;5051287;28;20264;-34
2022/08/07 00:59:35;;;;;;;2.30;1.20;;;;;;;;;;5045869;28;20273;-36
2022/08/07 01:02:03;;;;;;;0.80;0.80;;;;;;;;;;5042740;28;20201;-35
2022/08/07 01:04:30;;;;;;;1.80;1.20;;;;;;;;;;5045560;28;20212;-33
2022/08/07 01:06:57;;;;;;;1.53;1.10;;;;;;;;;;5037091;28;20230;-34
2022/08/07 01:09:25;;;;;;;1.20;1.00;;;;;;;;;;5046677;28;20263;-36
2022/08/07 01:11:53;;;;;;;2.27;1.13;;;;;;;;;;5050484;28;20202;-38
2022/08/07 01:14:21;;;;;;;1.37;1.27;;;;;;;;;;5050774;28;20289;-36
2022/08/07 01:16:49;;;;;;;1.17;1.07;;;;;;;;;;5039506;28;20273;-33
2022/08/07 01:19:17;;;;;;;4.23;1.10;;;;;;;;;;5049726;28;20209;-34
2022/08/07 01:21:46;;;;;;;2.40;1.23;;;;;;;;;;5042856;28;20202;-38
2022/08/07 01:24:14;;;;;;;1.27;1.10;;;;;;;;;;5046572;28;20202;-37
2022/08/07 01:26:41;;;;;;;1.30;1.20;;;;;;;;;;5049987;28;20230;-32
2022/08/07 01:29:09;;;;;;;1.23;1.20;;;;;;;;;;5050285;28;20220;-35
2022/08/07 01:31:37;;;;;;;1.43;1.33;;;;;;;;;;5036889;28;20247;-33
2022/08/07 01:34:04;;;;;;;0.90;0.90;;;;;;;;;;5047571;28;20209;-35
2022/08/07 01:36:32;;;;;;;1.10;1.03;;;;;;;;;;5040044;28;20225;-35
2022/08/07 01:39:00;;;;;;;1.37;1.17;;;;;;;;;;5049227;28;20225;-34
2022/08/07 01:41:28;;;;;;;3.20;1.17;;;;;;;;;;5049818;28;20224;-35
2022/08/07 01:43:55;;;;;;;1.60;1.20;;;;;;;;;;5049926;28;20206;-33
2022/08/07 01:46:22;;;;;;;1.63;1.13;;;;;;;;;;5044122;28;20212;-34
2022/08/07 01:48:49;;;;;;;1.30;1.20;;;;;;;;;;5048424;28;20216;-34
2022/08/07 01:51:18;;;;;;;1.43;1.30;;;;;;;;;;5044526;28;20212;-38
2022/08/07 01:53:47;;;;;;;1.27;1.10;;;;;;;;;;5045192;28;20208;-35
2022/08/07 01:58:45;;;;;;;1.40;1.30;;;;;;;;;;5026385;28;20228;-37
2022/08/07 02:01:14;;;;;;;4.17;1.43;;;;;;;;;;5022278;28;20209;-39
2022/08/07 02:03:43;;;;;;;1.20;1.10;;;;;;;;;;5016914;28;20206;-37
2022/08/07 02:06:13;;;;;;;2.33;1.37;;;;;;;;;;5011372;28;20207;-39
2022/08/07 02:08:41;;;;;;;1.10;1.00;;;;;;;;;;5002209;28;20214;-35
2022/08/07 02:11:09;;;;;;;1.47;1.30;;;;;;;;;;4991128;28;20227;-34
2022/08/07 02:13:39;;;;;;;3.60;1.17;;;;;;;;;;4989152;28;20215;-35
2022/08/07 02:16:09;;;;;;;1.70;1.20;;;;;;;;;;4990741;28;20249;-38
2022/08/07 02:18:38;;;;;;;1.10;1.07;;;;;;;;;;5001780;28;20282;-38
2022/08/07 02:21:06;;;;;;;1.10;1.00;;;;;;;;;;5000486;28;20235;-39
2022/08/07 02:23:35;;;;;;;1.10;0.93;;;;;;;;;;4999199;28;20377;-42
2022/08/07 02:26:03;;;;;;;1.10;1.00;;;;;;;;;;4999219;28;20265;-41
2022/08/07 02:28:31;;;;;;;1.00;1.00;;;;;;;;;;5005142;28;20234;-43
2022/08/07 02:30:59;;;;;;;0.90;0.90;;;;;;;;;;4998306;28;20204;-42
2022/08/07 02:33:29;;;;;;;5.97;1.50;;;;;;;;;;5008139;28;20199;-35
2022/08/07 02:35:56;;;;;;;0.90;0.90;;;;;;;;;;5003765;28;20419;-39
2022/08/07 02:38:26;;;;;;;1.13;1.03;;;;;;;;;;4998820;28;20219;-37
2022/08/07 02:40:53;;;;;;;0.90;0.90;;;;;;;;;;4997958;28;20225;-32
2022/08/07 02:43:21;;;;;;;3.80;0.90;;;;;;;;;;4989659;28;20207;-41
2022/08/07 02:45:49;;;;;;;1.37;0.87;;;;;;;;;;4991330;28;20217;-36
2022/08/07 02:48:16;;;;;;;2.23;1.10;;;;;;;;;;5000194;28;20395;-38
2022/08/07 02:50:46;;;;;;;1.50;1.27;;;;;;;;;;5005524;28;20207;-39
2022/08/07 02:53:16;;;;;;;0.80;0.80;;;;;;;;;;4998600;28;20200;-40
2022/08/07 02:55:46;;;;;;;1.00;0.83;;;;;;;;;;5004657;28;20205;-39
2022/08/07 02:58:17;;;;;;;0.80;0.80;;;;;;;;;;5012886;28;20346;-38
2022/08/07 03:00:44;;;;;;;3.87;0.90;;;;;;;;;;5001556;28;20216;-35
2022/08/07 03:03:11;;;;;;;1.57;0.80;;;;;;;;;;4993684;28;20223;-33
2022/08/07 03:05:40;;;;;;;0.83;0.83;;;;;;;;;;5004558;28;20215;-35
2022/08/07 03:08:09;;;;;;;1.03;1.03;;;;;;;;;;4998475;28;20227;-40
2022/08/07 03:10:36;;;;;;;0.80;0.80;;;;;;;;;;5001692;28;20206;-40
2022/08/07 03:13:03;;;;;;;2.30;0.90;;;;;;;;;;4993770;28;20215;-39
2022/08/07 03:15:31;;;;;;;0.93;0.77;;;;;;;;;;5002155;28;20206;-35
2022/08/07 03:17:58;;;;;;;0.80;0.80;;;;;;;;;;4995055;28;20237;-35
2022/08/07 03:20:26;;;;;;;2.13;1.07;;;;;;;;;;5011920;28;20267;-38
2022/08/07 03:22:54;;;;;;;1.03;1.03;;;;;;;;;;5002425;28;20210;-39
2022/08/07 03:25:22;;;;;;;0.90;0.90;;;;;;;;;;5004363;28;20202;-40
2022/08/07 03:27:50;;;;;;;2.30;0.90;;;;;;;;;;5012375;28;20237;-39
2022/08/07 03:30:17;;;;;;;1.10;0.80;;;;;;;;;;5002773;28;20207;-41
2022/08/07 03:32:45;;;;;;;0.83;0.83;;;;;;;;;;4991821;28;20222;-38
2022/08/07 03:35:13;;;;;;;1.40;1.00;;;;;;;;;;5011859;28;20215;-34
2022/08/07 03:37:41;;;;;;;0.80;0.80;;;;;;;;;;5004045;28;20227;-41
2022/08/07 03:40:09;;;;;;;1.57;0.73;;;;;;;;;;5003101;28;20224;-34
2022/08/07 03:42:38;;;;;;;0.60;0.60;;;;;;;;;;5011860;28;20210;-42
2022/08/07 03:45:05;;;;;;;0.80;0.80;;;;;;;;;;4995466;28;20214;-38
2022/08/07 03:47:33;;;;;;;0.80;0.80;;;;;;;;;;4992633;28;20218;-36
2022/08/07 03:50:00;;;;;;;0.93;0.83;;;;;;;;;;5009837;28;20202;-39
2022/08/07 03:52:29;;;;;;;1.50;0.77;;;;;;;;;;4994974;28;20214;-39
2022/08/07 03:54:57;;;;;;;0.87;0.87;;;;;;;;;;4996879;28;20467;-38
2022/08/07 03:57:24;;;;;;;1.03;0.93;;;;;;;;;;4990958;28;20238;-39
2022/08/07 03:59:53;;;;;;;1.60;1.50;;;;;;;;;;5009754;28;20202;-36
2022/08/07 04:02:20;;;;;;;1.13;1.13;;;;;;;;;;5001515;28;20214;-35
2022/08/07 04:04:48;;;;;;;1.23;1.10;;;;;;;;;;5003736;28;20212;-33
2022/08/07 04:07:16;;;;;;;0.90;0.90;;;;;;;;;;4993307;28;20227;-37
2022/08/07 04:09:44;;;;;;;2.03;1.00;;;;;;;;;;5002830;28;20232;-35
2022/08/07 04:12:11;;;;;;;1.20;1.10;;;;;;;;;;5011316;28;20214;-34
2022/08/07 04:14:39;;;;;;;1.60;1.00;;;;;;;;;;5001698;28;20202;-35
2022/08/07 04:17:08;;;;;;;0.80;0.80;;;;;;;;;;5004309;28;20230;-38
2022/08/07 04:19:35;;;;;;;0.80;0.80;;;;;;;;;;5014774;28;20209;-40
2022/08/07 04:22:03;;;;;;;0.80;0.80;;;;;;;;;;5004527;28;20229;-39
2022/08/07 04:24:31;;;;;;;0.80;0.80;;;;;;;;;;5008768;28;20229;-41
2022/08/07 04:27:01;;;;;;;1.07;0.90;;;;;;;;;;5014745;28;20221;-36
2022/08/07 04:29:28;;;;;;;0.80;0.80;;;;;;;;;;5010395;28;20288;-34
2022/08/07 04:31:56;;;;;;;0.90;0.90;;;;;;;;;;5005728;28;20217;-35
2022/08/07 04:34:25;;;;;;;0.80;0.80;;;;;;;;;;4995553;28;20262;-34
2022/08/07 04:36:52;;;;;;;0.90;0.90;;;;;;;;;;5001937;28;20454;-35
2022/08/07 04:39:20;;;;;;;0.87;0.87;;;;;;;;;;5006104;28;20205;-38
2022/08/07 04:41:47;;;;;;;1.20;1.03;;;;;;;;;;5000624;28;20212;-38
2022/08/07 04:44:14;;;;;;;2.10;1.20;;;;;;;;;;4995974;28;20215;-35
2022/08/07 04:46:44;;;;;;;2.00;1.10;;;;;;;;;;4999850;28;20231;-37
2022/08/07 04:49:16;;;;;;;1.00;0.90;;;;;;;;;;4998484;28;20209;-38
2022/08/07 04:51:49;;;;;;;2.03;1.03;;;;;;;;;;5013546;28;20205;-40
2022/08/07 04:54:20;;;;;;;1.23;0.90;;;;;;;;;;4998987;28;20209;-37
2022/08/07 04:56:50;;;;;;;1.23;1.13;;;;;;;;;;4998971;28;20235;-35
2022/08/07 04:59:18;;;;;;;1.37;1.27;;;;;;;;;;5008639;28;20204;-36
2022/08/07 05:01:49;;;;;;;1.17;1.07;;;;;;;;;;5004535;28;20241;-34
2022/08/07 05:04:19;;;;;;;1.40;1.03;;;;;;;;;;4998583;28;20280;-36
2022/08/07 05:06:53;;;;;;;2.40;1.10;;;;;;;;;;5001344;28;20233;-37
2022/08/07 05:09:23;;;;;;;1.10;1.10;;;;;;;;;;4998342;28;20217;-36
2022/08/07 05:11:52;;;;;;;2.50;1.30;;;;;;;;;;4996791;28;20215;-40
2022/08/07 05:14:20;;;;;;;1.60;1.13;;;;;;;;;;4991490;28;20242;-32
2022/08/07 05:16:49;;;;;;;1.53;1.17;;;;;;;;;;5001249;28;20236;-36
2022/08/07 05:19:17;;;;;;;1.43;1.33;;;;;;;;;;5005885;28;20229;-36
2022/08/07 05:21:47;;;;;;;1.50;1.40;;;;;;;;;;5000556;28;20202;-38
2022/08/07 05:24:17;;;;;;;2.53;1.40;;;;;;;;;;4991081;28;20207;-39
2022/08/07 05:26:44;;;;;;;1.40;1.30;;;;;;;;;;5008581;28;20233;-35
2022/08/07 05:29:12;;;;;;;3.97;2.03;;;;;;;;;;5009919;28;20225;-33
2022/08/07 05:31:40;;;;;;;1.50;1.40;;;;;;;;;;5005553;28;20212;-38
2022/08/07 05:34:08;;;;;;;1.50;1.40;;;;;;;;;;4994453;28;20204;-35
2022/08/07 05:36:35;;;;;;;1.60;1.50;;;;;;;;;;4997036;28;20226;-38
2022/08/07 05:39:03;;;;;;;2.97;2.00;;;;;;;;;;4999516;28;20414;-36
2022/08/07 05:41:31;;;;;;;2.10;1.93;;;;;;;;;;4992378;28;20207;-36
2022/08/07 05:43:59;;;;;;;1.70;1.60;;;;;;;;;;4991634;28;20217;-35
2022/08/07 05:46:26;;;;;;;1.70;1.60;;;;;;;;;;4999082;28;20242;-39
2022/08/07 05:48:54;;;;;;;1.67;1.57;;;;;;;;;;4994924;28;20218;-33
2022/08/07 05:51:22;;;;;;;1.73;1.63;;;;;;;;;;5004566;28;20241;-39
2022/08/07 05:53:49;;;;;;;1.87;1.77;;;;;;;;;;5003581;28;20204;-34
2022/08/07 05:56:17;;;;;;;2.57;2.10;;;;;;;;;;5003860;28;20214;-38
2022/08/07 05:58:47;;;;;;;3.00;1.73;;;;;;;;;;5012432;28;20206;-41
2022/08/07 06:01:15;;;;;;;3.00;1.80;;;;;;;;;;5008004;28;20207;-36
2022/08/07 06:03:44;;;;;;;2.87;1.70;;;;;;;;;;5006037;28;20207;-39
2022/08/07 06:06:12;;;;;;;1.83;1.50;;;;;;;;;;5004065;28;20225;-36
2022/08/07 06:08:41;;;;;;;3.20;1.90;;;;;;;;;;5003287;28;20226;-40
2022/08/07 06:11:08;;;;;;;2.20;1.77;;;;;;;;;;4993966;28;20249;-41
2022/08/07 06:13:36;;;;;;;1.80;1.70;;;;;;;;;;4990772;28;20215;-42
2022/08/07 06:16:06;;;;;;;1.67;1.57;;;;;;;;;;4995396;28;20210;-36
2022/08/07 06:18:34;;;;;;;2.13;1.80;;;;;;;;;;4996942;28;20226;-39
2022/08/07 06:21:01;;;;;;;2.70;1.83;;;;;;;;;;5003065;28;20202;-35
2022/08/07 06:23:29;;;;;;;2.13;2.00;;;;;;;;;;4994204;28;20198;-39
2022/08/07 06:25:56;;;;;;;2.07;1.97;;;;;;;;;;5001048;28;20212;-36
2022/08/07 06:28:24;;;;;;;2.50;1.90;;;;;;;;;;4997803;28;20234;-39
2022/08/07 06:30:51;;;;;;;2.10;2.00;;;;;;;;;;5005921;28;20217;-41
2022/08/07 06:33:20;;;;;;;2.10;2.00;;;;;;;;;;5001847;28;20213;-40
2022/08/07 06:35:47;;;;;;;3.20;1.80;;;;;;;;;;4989069;28;20203;-42
2022/08/07 06:38:14;;;;;;;2.73;2.50;;;;;;;;;;4995894;28;20222;-39
2022/08/07 06:40:43;;;;;;;2.20;1.90;;;;;;;;;;5005988;28;20202;-36
2022/08/07 06:43:11;;;;;;;2.67;2.13;;;;;;;;;;4989974;28;20204;-36
2022/08/07 06:45:39;;;;;;;1.90;1.80;;;;;;;;;;4992283;28;20228;-40
2022/08/07 06:48:06;;;;;;;2.10;2.00;;;;;;;;;;4999218;28;20234;-42
2022/08/07 06:50:36;;;;;;;2.05;1.92;;;;;;;;;;5002248;28;20204;-34
2022/08/07 06:53:04;;;;;;;2.28;2.08;;;;;;;;;;4991855;28;20214;-37
2022/08/07 06:55:33;;;;;;;2.20;2.10;;;;;;;;;;4993187;28;20230;-31
2022/08/07 06:58:03;;;;;;;1.88;1.70;;;;;;;;;;4989502;28;20235;-41
2022/08/07 07:00:35;;;;;;;2.38;1.83;;;;;;;;;;4992727;28;20210;-40
2022/08/07 07:03:03;;;;;;;3.17;2.28;;;;;;;;;;4991954;28;20210;-39
2022/08/07 07:05:30;;;;;;;2.78;1.98;;;;;;;;;;4988615;28;20216;-37
2022/08/07 07:07:58;;;;;;;3.00;1.63;;;;;;;;;;4997483;28;20225;-37
2022/08/07 07:10:29;;;;;;;2.10;1.58;;;;;;;;;;5005560;28;20208;-39
2022/08/07 07:12:57;;;;;;;1.77;1.67;;;;;;;;;;5009205;28;20213;-34
2022/08/07 07:15:27;;;;;;;1.70;1.60;;;;;;;;;;4994251;28;20209;-38
2022/08/07 07:17:57;;;;;;;2.78;1.50;;;;;;;;;;4998606;28;20225;-35
2022/08/07 07:20:26;;;;;;;3.05;1.40;;;;;;;;;;5007704;28;20217;-38
2022/08/07 07:22:54;;;;;;;2.10;1.20;;;;;;;;;;4996166;28;20211;-38
2022/08/07 07:25:23;;;;;;;1.75;1.40;;;;;;;;;;5008531;28;20203;-41
2022/08/07 07:27:52;;;;;;;1.23;1.23;;;;;;;;;;4999003;28;20238;-36
2022/08/07 07:30:23;;;;;;;1.85;1.20;;;;;;;;;;4990424;28;20225;-37
2022/08/07 07:32:51;;;;;;;1.30;1.30;;;;;;;;;;5003115;28;20225;-41
2022/08/07 07:35:18;;;;;;;1.60;1.35;;;;;;;;;;4996591;28;20214;-40
2022/08/07 07:37:48;;;;;;;1.17;1.17;;;;;;;;;;4988355;28;20225;-37
2022/08/07 07:40:17;;;;;;;1.10;1.00;;;;;;;;;;5011612;28;20203;-39
2022/08/07 07:42:46;;;;;;;1.02;0.80;;;;;;;;;;5012756;28;20218;-36
2022/08/07 07:45:15;;;;;;;0.98;0.80;;;;;;;;;;5004081;28;20214;-41
2022/08/07 07:47:43;;;;;;;0.85;0.77;;;;;;;;;;4996534;28;20235;-35
2022/08/07 07:50:11;;;;;;;0.68;0.68;;;;;;;;;;4993583;28;20218;-37
2022/08/07 07:52:39;;;;;;;1.23;0.80;;;;;;;;;;5005592;28;20210;-37
2022/08/07 07:55:07;;;;;;;0.98;0.77;;;;;;;;;;5002112;28;20206;-43
2022/08/07 08:00:06;;;;;;;1.30;0.85;;;;;;;;;;4998616;28;20225;-35
2022/08/07 08:02:35;;;;;;;0.60;0.60;;;;;;;;;;5000623;28;20211;-33
2022/08/07 08:05:03;;;;;;;0.70;0.70;;;;;;;;;;5012759;28;20290;-39
2022/08/07 08:07:31;;;;;;;3.85;1.42;;;;;;;;;;5006908;28;20266;-34
2022/08/07 08:09:59;;;;;;;0.73;0.73;;;;;;;;;;5000321;28;20222;-35
2022/08/07 08:12:27;;;;;;;0.88;0.88;;;;;;;;;;4993254;28;20211;-35
2022/08/07 08:14:54;;;;;;;0.80;0.80;;;;;;;;;;4991482;28;20228;-35
2022/08/07 08:17:24;;;;;;;1.10;0.95;;;;;;;;;;4993227;28;20250;-31
2022/08/07 08:19:51;;;;;;;0.90;0.90;;;;;;;;;;4992330;28;20299;-36
2022/08/07 08:27:53;;;;;;;1.95;0.70;;;;;;;;;;5011898;28;20229;-36
2022/08/07 08:30:23;;;;;;;0.75;0.75;;;;;;;;;;5001610;28;20221;-34
2022/08/07 08:32:54;;;;;;;0.88;0.88;;;;;;;;;;5001714;28;20225;-34
2022/08/07 08:35:23;;;;;;;0.80;0.80;;;;;;;;;;5012398;28;20246;-37
2022/08/07 08:37:51;;;;;;;0.50;0.50;;;;;;;;;;5001739;28;20317;-32
2022/08/07 08:40:22;;;;;;;1.38;0.63;;;;;;;;;;4999898;28;20203;-31
2022/08/07 08:42:53;;;;;;;1.45;0.65;;;;;;;;;;4997216;28;20202;-37
2022/08/07 08:45:24;;;;;;;1.00;0.90;;;;;;;;;;5005236;28;20230;-33
2022/08/07 08:47:59;;;;;;;1.30;0.70;;;;;;;;;;5010359;28;20223;-36
2022/08/07 08:50:31;;;;;;;0.73;0.73;;;;;;;;;;5008229;28;20219;-33
2022/08/07 08:53:05;;;;;;;0.52;0.50;;;;;;;;;;4992244;28;20210;-34
2022/08/07 08:55:36;;;;;;;1.55;0.65;;;;;;;;;;5002550;28;20211;-32
2022/08/07 08:58:06;;;;;;;1.38;0.70;;;;;;;;;;4990844;28;20234;-37
2022/08/07 09:00:36;;;;;;;0.77;0.77;;;;;;;;;;5005183;28;20202;-36
2022/08/07 09:03:11;;;;;;;0.95;0.80;;;;;;;;;;4993188;28;20200;-33
2022/08/07 09:05:41;;;;;;;0.50;0.50;;;;;;;;;;4992194;28;20584;-35
2022/08/07 09:08:13;;;;;;;0.55;0.55;;;;;;;;;;4998216;28;20261;-33
2022/08/07 09:10:44;;;;;;;0.65;0.65;;;;;;;;;;4999206;28;20219;-31
2022/08/07 09:13:14;;;;;;;0.60;0.60;;;;;;;;;;4989966;28;20227;-36
2022/08/07 09:15:45;;;;;;;1.70;0.90;;;;;;;;;;5001207;28;20214;-33
2022/08/07 09:18:19;;;;;;;0.65;0.65;;;;;;;;;;4992360;28;20577;-35
2022/08/07 09:20:49;;;;;;;0.82;0.60;;;;;;;;;;4990570;28;20217;-38
2022/08/07 09:23:23;;;;;;;0.40;0.40;;;;;;;;;;5002737;28;20214;-31
2022/08/07 09:25:57;;;;;;;0.60;0.60;;;;;;;;;;5002878;28;20209;-34
2022/08/07 09:28:28;;;;;;;0.60;0.60;;;;;;;;;;5013473;28;20239;-39
2022/08/07 09:30:58;;;;;;;1.08;0.77;;;;;;;;;;5006023;28;20222;-32
2022/08/07 09:33:41;;;;;;;1.27;1.17;;;;;;;;;;4998352;28;20210;-35
2022/08/07 09:36:12;;;;;;;0.77;0.45;;;;;;;;;;4995710;28;20229;-35
2022/08/07 09:38:43;;;;;;;1.45;0.80;;;;;;;;;;4991528;28;20316;-33
2022/08/07 09:41:18;;;;;;;1.02;0.85;;;;;;;;;;5003491;28;20194;-36
2022/08/07 09:43:56;;;;;;;0.70;0.70;;;;;;;;;;5013314;28;20231;-33
2022/08/07 09:46:29;;;;;;;0.50;0.50;;;;;;;;;;5006212;28;20201;-34
2022/08/07 09:49:02;;;;;;;0.93;0.50;;;;;;;;;;5004689;28;20194;-37
2022/08/07 09:51:40;;;;;;;0.40;0.40;;;;;;;;;;4993043;28;20300;-32
2022/08/07 09:54:08;;;;;;;0.73;0.73;;;;;;;;;;4999598;28;20203;-31
2022/08/07 09:56:54;;;;;;;0.50;0.50;;;;;;;;;;5013211;28;20312;-36
2022/08/07 09:59:42;;;;;;;0.57;0.50;;;;;;;;;;5009958;28;20210;-35
2022/08/07 10:02:18;;;;;;;0.65;0.65;;;;;;;;;;4994171;28;20214;-33
2022/08/07 10:05:09;;;;;;;0.50;0.50;;;;;;;;;;4992748;28;20198;-31
2022/08/07 10:07:56;;;;;;;2.50;0.80;;;;;;;;;;4985031;28;20241;-34
2022/08/07 10:10:30;;;;;;;0.77;0.70;;;;;;;;;;5003337;28;20231;-39
2022/08/07 10:13:15;;;;;;;0.50;0.50;;;;;;;;;;5010911;28;20225;-39
2022/08/07 10:15:50;;;;;;;0.40;0.40;;;;;;;;;;5004841;28;20210;-38
2022/08/07 10:18:29;;;;;;;0.60;0.60;;;;;;;;;;5008803;28;20220;-36
2022/08/07 10:21:04;;;;;;;0.50;0.50;;;;;;;;;;4994826;28;20547;-37
2022/08/07 10:23:40;;;;;;;0.50;0.50;;;;;;;;;;4996069;28;20205;-36
2022/08/07 10:26:15;;;;;;;0.70;0.70;;;;;;;;;;5012079;28;20201;-37
2022/08/07 10:28:51;;;;;;;0.50;0.50;;;;;;;;;;5007056;28;20209;-35
2022/08/07 10:31:30;;;;;;;0.85;0.85;;;;;;;;;;5002090;28;20249;-36
2022/08/07 10:34:05;;;;;;;0.98;0.70;;;;;;;;;;5012726;28;20243;-39
2022/08/07 10:36:39;;;;;;;0.55;0.55;;;;;;;;;;5007618;28;20281;-38
2022/08/07 10:39:10;;;;;;;0.40;0.40;;;;;;;;;;5003561;28;20213;-38
2022/08/07 10:41:39;;;;;;;0.60;0.60;;;;;;;;;;5012241;28;20198;-37
2022/08/07 10:44:10;;;;;;;0.60;0.60;;;;;;;;;;5012796;28;20206;-39
2022/08/07 10:46:41;;;;;;;0.70;0.70;;;;;;;;;;5005477;28;20226;-34
2022/08/07 10:49:13;;;;;;;0.65;0.40;;;;;;;;;;4991434;28;20205;-37
2022/08/07 10:51:45;;;;;;;1.67;1.05;;;;;;;;;;4996329;28;20210;-34
2022/08/07 10:54:18;;;;;;;0.90;0.65;;;;;;;;;;5002427;28;20236;-37
2022/08/07 10:56:50;;;;;;;1.25;0.80;;;;;;;;;;5012228;28;20233;-36
2022/08/07 10:59:24;;;;;;;0.65;0.60;;;;;;;;;;5007328;28;20305;-36
2022/08/07 11:01:54;;;;;;;0.55;0.55;;;;;;;;;;5010344;28;20205;-38
2022/08/07 11:04:32;;;;;;;1.17;0.73;;;;;;;;;;5010778;28;20207;-37
2022/08/07 11:07:02;;;;;;;0.50;0.50;;;;;;;;;;4994038;28;20593;-38
2022/08/07 11:09:32;;;;;;;1.05;0.70;;;;;;;;;;5002130;28;20230;-35
2022/08/07 11:12:02;;;;;;;2.10;0.60;;;;;;;;;;4992345;28;20205;-37
2022/08/07 11:14:31;;;;;;;0.50;0.50;;;;;;;;;;4991610;28;20218;-33
2022/08/07 11:17:00;;;;;;;0.77;0.77;;;;;;;;;;5012164;28;20288;-35
2022/08/07 11:19:31;;;;;;;1.25;0.60;;;;;;;;;;5013182;28;20209;-37
2022/08/07 11:22:03;;;;;;;0.60;0.60;;;;;;;;;;5005974;28;20204;-39
2022/08/07 11:24:38;;;;;;;1.35;0.77;;;;;;;;;;5006371;28;20213;-37
2022/08/07 11:27:09;;;;;;;0.70;0.70;;;;;;;;;;5012126;28;20219;-33
2022/08/07 11:29:38;;;;;;;0.77;0.77;;;;;;;;;;5011540;28;20319;-38
2022/08/07 11:32:08;;;;;;;0.50;0.50;;;;;;;;;;5003574;28;20200;-38
2022/08/07 11:34:40;;;;;;;4.63;0.70;;;;;;;;;;5007681;28;20213;-37
2022/08/07 11:37:10;;;;;;;3.92;0.60;;;;;;;;;;4999125;28;20220;-36
2022/08/07 11:39:46;;;;;;;0.82;0.73;;;;;;;;;;4998778;28;20197;-37
2022/08/07 11:42:15;;;;;;;1.33;0.77;;;;;;;;;;5013117;28;20297;-39
2022/08/07 11:44:47;;;;;;;0.52;0.52;;;;;;;;;;5003755;28;20241;-38
2022/08/07 11:47:23;;;;;;;1.50;0.68;;;;;;;;;;5001166;28;20232;-35
2022/08/07 11:50:03;;;;;;;5.72;1.00;;;;;;;;;;4993790;28;20227;-39
2022/08/07 11:52:40;;;;;;;0.70;0.70;;;;;;;;;;5003976;28;20215;-41
2022/08/07 11:55:15;;;;;;;1.10;0.60;;;;;;;;;;4997479;28;20208;-38
2022/08/07 11:57:44;;;;;;;0.60;0.60;;;;;;;;;;5014520;28;20228;-38
2022/08/07 12:00:13;;;;;;;1.17;0.70;;;;;;;;;;5010754;28;20208;-37
2022/08/07 12:02:55;;;;;;;3.60;0.70;;;;;;;;;;4995794;28;20214;-38
2022/08/07 12:05:27;;;;;;;0.88;0.70;;;;;;;;;;4980589;28;20215;-35
2022/08/07 12:07:59;;;;;;;0.60;0.60;;;;;;;;;;4997541;28;20230;-40
2022/08/07 12:10:29;;;;;;;1.77;0.70;;;;;;;;;;5012537;28;20220;-38
2022/08/07 12:12:59;;;;;;;0.65;0.63;;;;;;;;;;5012539;28;20201;-37
2022/08/07 12:15:28;;;;;;;0.70;0.70;;;;;;;;;;5007059;28;20250;-34
2022/08/07 12:17:57;;;;;;;0.77;0.75;;;;;;;;;;4996040;28;20225;-37
2022/08/07 12:20:28;;;;;;;1.33;0.80;;;;;;;;;;5011468;28;20205;-40
2022/08/07 12:23:04;;;;;;;0.80;0.80;;;;;;;;;;5000656;28;20214;-34
2022/08/07 12:25:55;;;;;;;0.60;0.60;;;;;;;;;;5002311;28;20256;-34
2022/08/07 12:28:27;;;;;;;0.50;0.50;;;;;;;;;;5004262;28;20217;-35
2022/08/07 12:30:58;;;;;;;0.65;0.65;;;;;;;;;;5001523;28;20218;-37
2022/08/07 12:33:27;;;;;;;0.68;0.68;;;;;;;;;;5002407;28;20227;-37
2022/08/07 12:35:55;;;;;;;0.63;0.63;;;;;;;;;;5009326;28;20210;-38
2022/08/07 12:38:24;;;;;;;0.50;0.50;;;;;;;;;;5004420;28;20247;-36
2022/08/07 12:40:54;;;;;;;0.68;0.60;;;;;;;;;;5005687;28;20204;-34
2022/08/07 12:43:22;;;;;;;0.60;0.60;;;;;;;;;;5014353;28;20197;-38
2022/08/07 12:45:53;;;;;;;0.98;0.68;;;;;;;;;;5007625;28;20214;-36
2022/08/07 12:48:31;;;;;;;0.60;0.60;;;;;;;;;;5002152;28;20227;-36
2022/08/07 12:51:01;;;;;;;1.88;1.00;;;;;;;;;;5002716;28;20260;-36
2022/08/07 12:53:31;;;;;;;1.05;0.82;;;;;;;;;;5002956;28;20295;-37
2022/08/07 12:56:03;;;;;;;1.45;0.70;;;;;;;;;;5011109;28;20193;-39
2022/08/07 12:58:33;;;;;;;0.90;0.70;;;;;;;;;;5014054;28;20597;-38
2022/08/07 13:01:03;;;;;;;0.70;0.70;;;;;;;;;;4998591;28;20258;-38
2022/08/07 13:03:51;;;;;;;0.80;0.80;;;;;;;;;;5011155;28;20209;-37
2022/08/07 13:06:27;;;;;;;0.80;0.68;;;;;;;;;;5006098;28;20229;-36
2022/08/07 13:08:59;;;;;;;0.80;0.80;;;;;;;;;;4996832;28;20206;-40
2022/08/07 13:11:49;;;;;;;1.05;0.75;;;;;;;;;;5006312;28;20248;-37
2022/08/07 13:14:22;;;;;;;0.60;0.60;;;;;;;;;;5011322;28;20639;-38
2022/08/07 13:16:56;;;;;;;3.13;0.98;;;;;;;;;;4994179;28;20227;-39
2022/08/07 13:19:27;;;;;;;1.30;0.82;;;;;;;;;;4993613;28;20203;-35
2022/08/07 13:21:57;;;;;;;0.75;0.68;;;;;;;;;;4999000;28;20212;-36
2022/08/07 13:24:25;;;;;;;1.20;0.93;;;;;;;;;;4995368;28;20197;-38
2022/08/07 13:26:54;;;;;;;1.42;0.80;;;;;;;;;;4997273;28;20254;-37
2022/08/07 13:29:25;;;;;;;1.23;0.82;;;;;;;;;;4995754;28;20213;-37
2022/08/07 13:31:54;;;;;;;1.02;0.70;;;;;;;;;;5001396;28;20232;-37
2022/08/07 13:34:24;;;;;;;1.10;0.80;;;;;;;;;;5000320;28;20213;-37
2022/08/07 13:36:56;;;;;;;1.25;0.60;;;;;;;;;;5002993;28;20254;-36
2022/08/07 13:39:27;;;;;;;0.82;0.82;;;;;;;;;;5015313;28;20224;-37
2022/08/07 13:41:55;;;;;;;0.90;0.50;;;;;;;;;;5009584;28;20204;-40
2022/08/07 13:44:26;;;;;;;0.52;0.52;;;;;;;;;;5000145;28;20219;-36
2022/08/07 13:46:57;;;;;;;0.63;0.63;;;;;;;;;;5001659;28;20231;-34
2022/08/07 13:49:25;;;;;;;0.70;0.70;;;;;;;;;;5002744;28;20606;-40
2022/08/07 13:51:52;;;;;;;0.50;0.50;;;;;;;;;;4997595;28;20230;-37
2022/08/07 13:54:22;;;;;;;0.98;0.75;;;;;;;;;;5008861;28;20205;-37
2022/08/07 13:56:49;;;;;;;1.60;0.70;;;;;;;;;;5006756;28;20722;-35
2022/08/07 13:59:22;;;;;;;0.68;0.68;;;;;;;;;;5004491;28;20583;-40
2022/08/07 14:01:52;;;;;;;0.60;0.60;;;;;;;;;;4999644;28;20201;-36
2022/08/07 14:04:24;;;;;;;1.00;0.65;;;;;;;;;;5004361;28;20208;-38
2022/08/07 14:06:53;;;;;;;0.70;0.70;;;;;;;;;;4998195;28;20273;-35
2022/08/07 14:09:21;;;;;;;0.80;0.63;;;;;;;;;;5003855;28;20365;-36
2022/08/07 14:11:51;;;;;;;0.60;0.60;;;;;;;;;;5008442;28;20232;-35
2022/08/07 14:14:19;;;;;;;1.58;0.80;;;;;;;;;;5007425;28;20228;-40
2022/08/07 14:16:47;;;;;;;0.93;0.88;;;;;;;;;;5000227;28;20825;-36
2022/08/07 14:19:18;;;;;;;0.70;0.70;;;;;;;;;;5005726;28;20305;-39
2022/08/07 14:21:48;;;;;;;1.42;1.00;;;;;;;;;;5004984;28;20205;-35
2022/08/07 14:24:20;;;;;;;0.70;0.70;;;;;;;;;;4995613;28;20218;-32
2022/08/07 14:26:50;;;;;;;1.25;0.60;;;;;;;;;;5002137;28;20237;-39
2022/08/07 14:29:19;;;;;;;0.60;0.60;;;;;;;;;;5001805;28;20209;-39
2022/08/07 14:31:47;;;;;;;2.25;0.70;;;;;;;;;;4996152;28;20226;-34
2022/08/07 14:34:15;;;;;;;0.70;0.70;;;;;;;;;;5005878;28;20288;-35
2022/08/07 14:36:44;;;;;;;2.10;0.77;;;;;;;;;;5003047;28;20241;-35
2022/08/07 14:39:12;;;;;;;0.82;0.82;;;;;;;;;;5010724;28;20207;-36
2022/08/07 14:41:39;;;;;;;0.93;0.70;;;;;;;;;;5003069;28;20214;-38
2022/08/07 14:44:08;;;;;;;0.90;0.90;;;;;;;;;;5013494;28;20210;-37
2022/08/07 14:46:36;;;;;;;1.83;0.60;;;;;;;;;;5002341;28;20324;-37
2022/08/07 14:49:04;;;;;;;1.83;0.80;;;;;;;;;;5007178;28;20274;-38
2022/08/07 14:51:32;;;;;;;0.85;0.73;;;;;;;;;;5004064;28;20222;-38
2022/08/07 14:54:04;;;;;;;1.70;0.80;;;;;;;;;;5004687;28;20277;-36
2022/08/07 14:56:32;;;;;;;0.60;0.60;;;;;;;;;;5009540;28;20205;-36
2022/08/07 14:59:03;;;;;;;2.95;0.98;;;;;;;;;;5007727;28;20399;-40
2022/08/07 15:01:31;;;;;;;0.60;0.60;;;;;;;;;;4992252;28;20440;-36
2022/08/07 15:04:00;;;;;;;0.60;0.60;;;;;;;;;;5002962;28;20211;-36
2022/08/07 15:06:30;;;;;;;1.05;0.70;;;;;;;;;;4993222;28;20210;-38
2022/08/07 15:09:02;;;;;;;1.08;0.82;;;;;;;;;;5005069;28;20212;-39